sensor_id;sensor_type;location;lat;lon;timestamp;P1;durP1;ratioP1;P2;durP2;ratioP2
21513;SDS011;10918;48.102;11.636;2022-07-12T00:01:51;3.25;;;2.53;;
21513;SDS011;10918;48.102;11.636;2022-07-12T00:04:18;2.67;;;2.47;;
21513;SDS011;10918;48.102;11.636;2022-07-12T00:06:44;2.45;;;2.20;;
21513;SDS011;10918;48.102;11.636;2022-07-12T00:09:10;2.30;;;2.10;;
21513;SDS011;10918;48.102;11.636;2022-07-12T00:11:36;3.85;;;2.40;;
21513;SDS011;10918;48.102;11.636;2022-07-12T00:14:03;2.38;;;2.17;;
21513;SDS011;10918;48.102;11.636;2022-07-12T00:16:30;3.25;;;2.22;;
21513;SDS011;10918;48.102;11.636;2022-07-12T00:18:56;3.17;;;2.38;;
21513;SDS011;10918;48.102;11.636;2022-07-12T00:21:23;2.72;;;2.28;;
21513;SDS011;10918;48.102;11.636;2022-07-12T00:23:49;3.30;;;2.75;;
21513;SDS011;10918;48.102;11.636;2022-07-12T00:26:15;4.18;;;2.17;;
21513;SDS011;10918;48.102;11.636;2022-07-12T00:28:41;2.40;;;2.20;;
21513;SDS011;10918;48.102;11.636;2022-07-12T00:31:07;2.90;;;2.33;;
21513;SDS011;10918;48.102;11.636;2022-07-12T00:33:33;2.55;;;2.35;;
21513;SDS011;10918;48.102;11.636;2022-07-12T00:36:00;4.22;;;2.15;;
21513;SDS011;10918;48.102;11.636;2022-07-12T00:38:26;2.63;;;2.42;;
21513;SDS011;10918;48.102;11.636;2022-07-12T00:40:52;2.50;;;2.30;;
21513;SDS011;10918;48.102;11.636;2022-07-12T00:43:18;2.85;;;2.30;;
21513;SDS011;10918;48.102;11.636;2022-07-12T00:45:44;2.40;;;2.20;;
21513;SDS011;10918;48.102;11.636;2022-07-12T00:48:10;3.45;;;2.33;;
21513;SDS011;10918;48.102;11.636;2022-07-12T00:50:37;2.55;;;2.35;;
21513;SDS011;10918;48.102;11.636;2022-07-12T00:53:03;2.63;;;2.42;;
21513;SDS011;10918;48.102;11.636;2022-07-12T00:55:29;3.25;;;2.38;;
21513;SDS011;10918;48.102;11.636;2022-07-12T00:57:55;2.35;;;2.05;;
21513;SDS011;10918;48.102;11.636;2022-07-12T01:00:22;7.43;;;2.53;;
21513;SDS011;10918;48.102;11.636;2022-07-12T01:02:49;2.45;;;2.25;;
21513;SDS011;10918;48.102;11.636;2022-07-12T01:05:15;2.35;;;2.10;;
21513;SDS011;10918;48.102;11.636;2022-07-12T01:07:41;2.65;;;2.25;;
21513;SDS011;10918;48.102;11.636;2022-07-12T01:10:08;2.15;;;1.92;;
21513;SDS011;10918;48.102;11.636;2022-07-12T01:12:34;2.10;;;1.90;;
21513;SDS011;10918;48.102;11.636;2022-07-12T01:15:00;3.67;;;2.65;;
21513;SDS011;10918;48.102;11.636;2022-07-12T01:17:27;2.45;;;2.25;;
21513;SDS011;10918;48.102;11.636;2022-07-12T01:19:54;2.47;;;2.13;;
21513;SDS011;10918;48.102;11.636;2022-07-12T01:22:25;2.38;;;2.13;;
21513;SDS011;10918;48.102;11.636;2022-07-12T01:24:52;3.70;;;2.30;;
21513;SDS011;10918;48.102;11.636;2022-07-12T01:27:18;3.00;;;2.53;;
21513;SDS011;10918;48.102;11.636;2022-07-12T01:29:44;3.70;;;2.13;;
21513;SDS011;10918;48.102;11.636;2022-07-12T01:32:10;2.22;;;2.03;;
21513;SDS011;10918;48.102;11.636;2022-07-12T01:35:01;3.10;;;2.40;;
21513;SDS011;10918;48.102;11.636;2022-07-12T01:37:31;2.80;;;2.40;;
21513;SDS011;10918;48.102;11.636;2022-07-12T01:39:59;2.35;;;2.15;;
21513;SDS011;10918;48.102;11.636;2022-07-12T01:42:26;4.05;;;2.83;;
21513;SDS011;10918;48.102;11.636;2022-07-12T01:44:52;3.20;;;2.20;;
21513;SDS011;10918;48.102;11.636;2022-07-12T01:47:19;2.70;;;2.50;;
21513;SDS011;10918;48.102;11.636;2022-07-12T01:49:45;3.13;;;2.28;;
21513;SDS011;10918;48.102;11.636;2022-07-12T01:52:12;3.20;;;2.63;;
21513;SDS011;10918;48.102;11.636;2022-07-12T01:54:38;4.28;;;2.65;;
21513;SDS011;10918;48.102;11.636;2022-07-12T01:57:05;3.28;;;2.20;;
21513;SDS011;10918;48.102;11.636;2022-07-12T01:59:31;3.17;;;2.58;;
21513;SDS011;10918;48.102;11.636;2022-07-12T02:01:57;2.45;;;2.15;;
21513;SDS011;10918;48.102;11.636;2022-07-12T02:04:24;3.50;;;2.28;;
21513;SDS011;10918;48.102;11.636;2022-07-12T02:06:50;2.72;;;2.20;;
21513;SDS011;10918;48.102;11.636;2022-07-12T02:09:16;3.00;;;2.50;;
21513;SDS011;10918;48.102;11.636;2022-07-12T02:11:42;2.90;;;2.70;;
21513;SDS011;10918;48.102;11.636;2022-07-12T02:14:09;2.85;;;2.03;;
21513;SDS011;10918;48.102;11.636;2022-07-12T02:16:37;4.80;;;2.85;;
21513;SDS011;10918;48.102;11.636;2022-07-12T02:19:03;2.30;;;2.10;;
21513;SDS011;10918;48.102;11.636;2022-07-12T02:21:29;2.67;;;2.45;;
21513;SDS011;10918;48.102;11.636;2022-07-12T02:23:55;2.47;;;2.28;;
21513;SDS011;10918;48.102;11.636;2022-07-12T02:26:22;3.15;;;2.55;;
21513;SDS011;10918;48.102;11.636;2022-07-12T02:28:48;4.43;;;2.70;;
21513;SDS011;10918;48.102;11.636;2022-07-12T02:31:14;4.30;;;2.70;;
21513;SDS011;10918;48.102;11.636;2022-07-12T02:33:40;2.42;;;2.22;;
21513;SDS011;10918;48.102;11.636;2022-07-12T02:36:06;3.50;;;2.28;;
21513;SDS011;10918;48.102;11.636;2022-07-12T02:38:33;3.15;;;2.65;;
21513;SDS011;10918;48.102;11.636;2022-07-12T02:40:59;2.65;;;2.45;;
21513;SDS011;10918;48.102;11.636;2022-07-12T02:43:26;2.75;;;2.42;;
21513;SDS011;10918;48.102;11.636;2022-07-12T02:45:54;3.13;;;2.63;;
21513;SDS011;10918;48.102;11.636;2022-07-12T02:48:23;2.88;;;2.47;;
21513;SDS011;10918;48.102;11.636;2022-07-12T02:50:49;4.03;;;2.80;;
21513;SDS011;10918;48.102;11.636;2022-07-12T02:53:15;2.70;;;2.47;;
21513;SDS011;10918;48.102;11.636;2022-07-12T02:55:41;2.88;;;2.63;;
21513;SDS011;10918;48.102;11.636;2022-07-12T02:58:07;3.35;;;2.72;;
21513;SDS011;10918;48.102;11.636;2022-07-12T03:00:34;3.90;;;3.00;;
21513;SDS011;10918;48.102;11.636;2022-07-12T03:03:01;3.25;;;2.80;;
21513;SDS011;10918;48.102;11.636;2022-07-12T03:05:27;3.22;;;2.60;;
21513;SDS011;10918;48.102;11.636;2022-07-12T03:07:53;3.08;;;2.78;;
21513;SDS011;10918;48.102;11.636;2022-07-12T03:10:19;3.55;;;2.78;;
21513;SDS011;10918;48.102;11.636;2022-07-12T03:12:45;3.00;;;2.47;;
21513;SDS011;10918;48.102;11.636;2022-07-12T03:15:11;3.30;;;2.63;;
21513;SDS011;10918;48.102;11.636;2022-07-12T03:17:37;3.97;;;2.90;;
21513;SDS011;10918;48.102;11.636;2022-07-12T03:20:04;3.40;;;3.00;;
21513;SDS011;10918;48.102;11.636;2022-07-12T03:22:36;3.10;;;2.80;;
21513;SDS011;10918;48.102;11.636;2022-07-12T03:25:02;2.90;;;2.65;;
21513;SDS011;10918;48.102;11.636;2022-07-12T03:27:28;3.20;;;2.65;;
21513;SDS011;10918;48.102;11.636;2022-07-12T03:29:56;3.78;;;2.97;;
21513;SDS011;10918;48.102;11.636;2022-07-12T03:32:22;3.95;;;2.95;;
21513;SDS011;10918;48.102;11.636;2022-07-12T03:34:48;3.47;;;3.08;;
21513;SDS011;10918;48.102;11.636;2022-07-12T03:37:14;3.28;;;2.97;;
21513;SDS011;10918;48.102;11.636;2022-07-12T03:39:40;3.22;;;2.92;;
21513;SDS011;10918;48.102;11.636;2022-07-12T03:42:06;4.50;;;3.20;;
21513;SDS011;10918;48.102;11.636;2022-07-12T03:44:32;3.60;;;2.83;;
21513;SDS011;10918;48.102;11.636;2022-07-12T03:46:59;3.85;;;3.28;;
21513;SDS011;10918;48.102;11.636;2022-07-12T03:49:25;4.15;;;3.00;;
21513;SDS011;10918;48.102;11.636;2022-07-12T03:51:51;3.22;;;2.88;;
21513;SDS011;10918;48.102;11.636;2022-07-12T03:54:17;3.00;;;2.67;;
21513;SDS011;10918;48.102;11.636;2022-07-12T03:56:43;4.40;;;3.15;;
21513;SDS011;10918;48.102;11.636;2022-07-12T03:59:27;3.58;;;2.95;;
21513;SDS011;10918;48.102;11.636;2022-07-12T04:01:53;4.50;;;3.50;;
21513;SDS011;10918;48.102;11.636;2022-07-12T04:04:19;3.88;;;3.45;;
21513;SDS011;10918;48.102;11.636;2022-07-12T04:06:45;4.40;;;3.15;;
21513;SDS011;10918;48.102;11.636;2022-07-12T04:09:12;3.40;;;3.10;;
21513;SDS011;10918;48.102;11.636;2022-07-12T04:11:38;3.38;;;3.08;;
21513;SDS011;10918;48.102;11.636;2022-07-12T04:14:04;3.58;;;2.92;;
21513;SDS011;10918;48.102;11.636;2022-07-12T04:16:30;3.72;;;3.28;;
21513;SDS011;10918;48.102;11.636;2022-07-12T04:18:56;3.20;;;2.75;;
21513;SDS011;10918;48.102;11.636;2022-07-12T04:21:23;3.85;;;2.85;;
21513;SDS011;10918;48.102;11.636;2022-07-12T04:23:49;3.70;;;3.28;;
21513;SDS011;10918;48.102;11.636;2022-07-12T04:26:14;5.60;;;3.03;;
21513;SDS011;10918;48.102;11.636;2022-07-12T04:28:41;3.42;;;3.08;;
21513;SDS011;10918;48.102;11.636;2022-07-12T04:31:07;3.95;;;3.35;;
21513;SDS011;10918;48.102;11.636;2022-07-12T04:33:34;3.97;;;3.22;;
21513;SDS011;10918;48.102;11.636;2022-07-12T04:36:00;3.95;;;2.67;;
21513;SDS011;10918;48.102;11.636;2022-07-12T04:38:26;4.63;;;3.35;;
21513;SDS011;10918;48.102;11.636;2022-07-12T04:40:52;4.13;;;3.42;;
21513;SDS011;10918;48.102;11.636;2022-07-12T04:43:18;4.07;;;3.20;;
21513;SDS011;10918;48.102;11.636;2022-07-12T04:45:44;3.90;;;3.22;;
21513;SDS011;10918;48.102;11.636;2022-07-12T04:48:10;4.80;;;3.42;;
21513;SDS011;10918;48.102;11.636;2022-07-12T04:50:37;3.40;;;2.95;;
21513;SDS011;10918;48.102;11.636;2022-07-12T04:53:03;4.32;;;3.45;;
21513;SDS011;10918;48.102;11.636;2022-07-12T04:55:29;4.20;;;3.75;;
21513;SDS011;10918;48.102;11.636;2022-07-12T04:57:55;3.90;;;3.50;;
21513;SDS011;10918;48.102;11.636;2022-07-12T05:00:21;6.60;;;3.50;;
21513;SDS011;10918;48.102;11.636;2022-07-12T05:02:48;3.28;;;2.90;;
21513;SDS011;10918;48.102;11.636;2022-07-12T05:05:14;5.47;;;3.70;;
21513;SDS011;10918;48.102;11.636;2022-07-12T05:07:40;5.13;;;3.75;;
21513;SDS011;10918;48.102;11.636;2022-07-12T05:10:06;4.90;;;3.70;;
21513;SDS011;10918;48.102;11.636;2022-07-12T05:12:36;5.10;;;4.60;;
21513;SDS011;10918;48.102;11.636;2022-07-12T05:15:05;6.30;;;4.40;;
21513;SDS011;10918;48.102;11.636;2022-07-12T05:17:32;7.10;;;4.07;;
21513;SDS011;10918;48.102;11.636;2022-07-12T05:19:58;5.30;;;3.47;;
21513;SDS011;10918;48.102;11.636;2022-07-12T05:22:24;5.75;;;4.70;;
21513;SDS011;10918;48.102;11.636;2022-07-12T05:24:50;6.15;;;4.15;;
21513;SDS011;10918;48.102;11.636;2022-07-12T05:27:16;4.75;;;3.95;;
21513;SDS011;10918;48.102;11.636;2022-07-12T05:29:42;4.57;;;3.90;;
21513;SDS011;10918;48.102;11.636;2022-07-12T05:32:08;5.80;;;3.95;;
21513;SDS011;10918;48.102;11.636;2022-07-12T05:34:34;6.25;;;3.85;;
21513;SDS011;10918;48.102;11.636;2022-07-12T05:37:00;4.53;;;3.55;;
21513;SDS011;10918;48.102;11.636;2022-07-12T05:39:26;4.35;;;3.67;;
21513;SDS011;10918;48.102;11.636;2022-07-12T05:41:52;4.93;;;3.88;;
21513;SDS011;10918;48.102;11.636;2022-07-12T05:44:18;5.32;;;4.68;;
21513;SDS011;10918;48.102;11.636;2022-07-12T05:46:47;4.63;;;3.60;;
21513;SDS011;10918;48.102;11.636;2022-07-12T05:49:13;4.45;;;3.03;;
21513;SDS011;10918;48.102;11.636;2022-07-12T05:51:39;4.97;;;2.97;;
21513;SDS011;10918;48.102;11.636;2022-07-12T05:54:24;4.63;;;3.00;;
21513;SDS011;10918;48.102;11.636;2022-07-12T05:56:50;3.10;;;2.80;;
21513;SDS011;10918;48.102;11.636;2022-07-12T05:59:17;4.60;;;3.38;;
21513;SDS011;10918;48.102;11.636;2022-07-12T06:01:43;3.40;;;3.10;;
21513;SDS011;10918;48.102;11.636;2022-07-12T06:04:09;3.80;;;3.15;;
21513;SDS011;10918;48.102;11.636;2022-07-12T06:06:35;4.55;;;2.55;;
21513;SDS011;10918;48.102;11.636;2022-07-12T06:09:02;3.13;;;2.70;;
21513;SDS011;10918;48.102;11.636;2022-07-12T06:11:28;3.00;;;2.25;;
21513;SDS011;10918;48.102;11.636;2022-07-12T06:13:54;3.05;;;2.53;;
21513;SDS011;10918;48.102;11.636;2022-07-12T06:16:20;2.75;;;2.55;;
21513;SDS011;10918;48.102;11.636;2022-07-12T06:18:46;3.15;;;2.83;;
21513;SDS011;10918;48.102;11.636;2022-07-12T06:21:12;3.03;;;2.33;;
21513;SDS011;10918;48.102;11.636;2022-07-12T06:23:38;3.22;;;2.67;;
21513;SDS011;10918;48.102;11.636;2022-07-12T06:26:04;2.53;;;2.33;;
21513;SDS011;10918;48.102;11.636;2022-07-12T06:28:31;6.05;;;2.80;;
21513;SDS011;10918;48.102;11.636;2022-07-12T06:30:56;2.92;;;2.63;;
21513;SDS011;10918;48.102;11.636;2022-07-12T06:33:22;3.63;;;3.05;;
21513;SDS011;10918;48.102;11.636;2022-07-12T06:35:48;3.78;;;2.65;;
21513;SDS011;10918;48.102;11.636;2022-07-12T06:38:15;6.00;;;3.15;;
21513;SDS011;10918;48.102;11.636;2022-07-12T06:40:41;2.88;;;2.28;;
21513;SDS011;10918;48.102;11.636;2022-07-12T06:43:10;4.32;;;3.10;;
21513;SDS011;10918;48.102;11.636;2022-07-12T06:45:38;5.22;;;2.58;;
21513;SDS011;10918;48.102;11.636;2022-07-12T06:48:04;3.65;;;3.00;;
21513;SDS011;10918;48.102;11.636;2022-07-12T06:50:30;6.40;;;3.17;;
21513;SDS011;10918;48.102;11.636;2022-07-12T06:52:56;3.15;;;2.85;;
21513;SDS011;10918;48.102;11.636;2022-07-12T06:55:23;3.30;;;2.72;;
21513;SDS011;10918;48.102;11.636;2022-07-12T06:57:49;4.30;;;3.88;;
21513;SDS011;10918;48.102;11.636;2022-07-12T07:00:15;4.88;;;3.88;;
21513;SDS011;10918;48.102;11.636;2022-07-12T07:02:41;4.43;;;3.28;;
21513;SDS011;10918;48.102;11.636;2022-07-12T07:05:07;3.00;;;2.55;;
21513;SDS011;10918;48.102;11.636;2022-07-12T07:07:33;3.38;;;2.75;;
21513;SDS011;10918;48.102;11.636;2022-07-12T07:09:59;2.70;;;2.20;;
21513;SDS011;10918;48.102;11.636;2022-07-12T07:12:25;2.70;;;2.50;;
21513;SDS011;10918;48.102;11.636;2022-07-12T07:14:51;3.20;;;2.38;;
21513;SDS011;10918;48.102;11.636;2022-07-12T07:17:18;8.35;;;2.90;;
21513;SDS011;10918;48.102;11.636;2022-07-12T07:19:45;6.93;;;2.67;;
21513;SDS011;10918;48.102;11.636;2022-07-12T07:22:12;4.05;;;2.70;;
21513;SDS011;10918;48.102;11.636;2022-07-12T07:24:38;5.47;;;2.45;;
21513;SDS011;10918;48.102;11.636;2022-07-12T07:27:05;3.25;;;2.35;;
21513;SDS011;10918;48.102;11.636;2022-07-12T07:29:31;3.33;;;2.78;;
21513;SDS011;10918;48.102;11.636;2022-07-12T07:32:15;2.30;;;2.10;;
21513;SDS011;10918;48.102;11.636;2022-07-12T07:34:41;3.28;;;2.22;;
21513;SDS011;10918;48.102;11.636;2022-07-12T07:37:07;3.53;;;1.55;;
21513;SDS011;10918;48.102;11.636;2022-07-12T07:39:34;2.30;;;1.60;;
21513;SDS011;10918;48.102;11.636;2022-07-12T07:42:00;2.88;;;1.55;;
21513;SDS011;10918;48.102;11.636;2022-07-12T07:44:26;3.78;;;1.70;;
21513;SDS011;10918;48.102;11.636;2022-07-12T07:46:52;2.03;;;1.60;;
21513;SDS011;10918;48.102;11.636;2022-07-12T07:49:18;1.67;;;1.40;;
21513;SDS011;10918;48.102;11.636;2022-07-12T07:51:44;2.13;;;1.88;;
21513;SDS011;10918;48.102;11.636;2022-07-12T07:54:10;2.97;;;2.45;;
21513;SDS011;10918;48.102;11.636;2022-07-12T07:56:36;3.08;;;1.67;;
21513;SDS011;10918;48.102;11.636;2022-07-12T07:59:02;2.20;;;1.83;;
21513;SDS011;10918;48.102;11.636;2022-07-12T08:01:29;2.50;;;1.80;;
21513;SDS011;10918;48.102;11.636;2022-07-12T08:06:36;2.58;;;1.20;;
21513;SDS011;10918;48.102;11.636;2022-07-12T08:09:02;2.75;;;1.42;;
21513;SDS011;10918;48.102;11.636;2022-07-12T08:11:29;1.25;;;1.10;;
21513;SDS011;10918;48.102;11.636;2022-07-12T08:13:55;1.50;;;1.40;;
21513;SDS011;10918;48.102;11.636;2022-07-12T08:16:21;2.15;;;1.25;;
21513;SDS011;10918;48.102;11.636;2022-07-12T08:18:47;1.20;;;1.10;;
21513;SDS011;10918;48.102;11.636;2022-07-12T08:21:13;1.35;;;1.20;;
21513;SDS011;10918;48.102;11.636;2022-07-12T08:23:39;1.98;;;1.25;;
21513;SDS011;10918;48.102;11.636;2022-07-12T08:26:05;2.65;;;1.33;;
21513;SDS011;10918;48.102;11.636;2022-07-12T08:28:31;2.10;;;1.30;;
21513;SDS011;10918;48.102;11.636;2022-07-12T08:30:57;1.80;;;1.40;;
21513;SDS011;10918;48.102;11.636;2022-07-12T08:33:23;2.97;;;1.55;;
21513;SDS011;10918;48.102;11.636;2022-07-12T08:35:49;1.77;;;1.30;;
21513;SDS011;10918;48.102;11.636;2022-07-12T08:38:15;1.45;;;1.20;;
21513;SDS011;10918;48.102;11.636;2022-07-12T08:40:41;1.42;;;1.20;;
21513;SDS011;10918;48.102;11.636;2022-07-12T08:43:07;1.55;;;1.30;;
21513;SDS011;10918;48.102;11.636;2022-07-12T08:45:33;2.05;;;1.30;;
21513;SDS011;10918;48.102;11.636;2022-07-12T08:47:59;1.45;;;1.25;;
21513;SDS011;10918;48.102;11.636;2022-07-12T08:50:25;1.30;;;1.20;;
21513;SDS011;10918;48.102;11.636;2022-07-12T08:52:53;2.55;;;1.20;;
21513;SDS011;10918;48.102;11.636;2022-07-12T08:57:45;2.40;;;1.42;;
21513;SDS011;10918;48.102;11.636;2022-07-12T09:00:12;2.10;;;1.27;;
21513;SDS011;10918;48.102;11.636;2022-07-12T09:02:45;1.65;;;0.90;;
21513;SDS011;10918;48.102;11.636;2022-07-12T09:05:12;1.40;;;1.30;;
21513;SDS011;10918;48.102;11.636;2022-07-12T09:07:39;1.60;;;1.00;;
21513;SDS011;10918;48.102;11.636;2022-07-12T09:10:05;2.42;;;1.30;;
21513;SDS011;10918;48.102;11.636;2022-07-12T09:12:35;1.38;;;1.27;;
21513;SDS011;10918;48.102;11.636;2022-07-12T09:15:11;1.27;;;0.93;;
21513;SDS011;10918;48.102;11.636;2022-07-12T09:17:37;3.08;;;1.25;;
21513;SDS011;10918;48.102;11.636;2022-07-12T09:20:04;1.00;;;0.90;;
21513;SDS011;10918;48.102;11.636;2022-07-12T09:22:30;2.10;;;1.33;;
21513;SDS011;10918;48.102;11.636;2022-07-12T09:24:56;1.50;;;1.40;;
21513;SDS011;10918;48.102;11.636;2022-07-12T09:27:25;1.25;;;1.15;;
21513;SDS011;10918;48.102;11.636;2022-07-12T09:29:52;1.58;;;1.48;;
21513;SDS011;10918;48.102;11.636;2022-07-12T09:32:18;1.60;;;1.38;;
21513;SDS011;10918;48.102;11.636;2022-07-12T09:35:03;1.30;;;1.20;;
21513;SDS011;10918;48.102;11.636;2022-07-12T09:37:48;1.13;;;1.08;;
21513;SDS011;10918;48.102;11.636;2022-07-12T09:40:14;1.20;;;1.10;;
21513;SDS011;10918;48.102;11.636;2022-07-12T09:42:40;1.83;;;1.10;;
21513;SDS011;10918;48.102;11.636;2022-07-12T09:45:10;1.30;;;1.05;;
21513;SDS011;10918;48.102;11.636;2022-07-12T09:47:36;1.30;;;1.20;;
21513;SDS011;10918;48.102;11.636;2022-07-12T09:50:06;1.30;;;0.90;;
21513;SDS011;10918;48.102;11.636;2022-07-12T09:52:36;4.65;;;1.10;;
21513;SDS011;10918;48.102;11.636;2022-07-12T09:55:04;2.05;;;1.13;;
21513;SDS011;10918;48.102;11.636;2022-07-12T09:57:32;1.20;;;1.10;;
21513;SDS011;10918;48.102;11.636;2022-07-12T09:59:58;1.02;;;1.02;;
21513;SDS011;10918;48.102;11.636;2022-07-12T10:02:25;1.77;;;1.10;;
21513;SDS011;10918;48.102;11.636;2022-07-12T10:04:51;2.30;;;1.08;;
21513;SDS011;10918;48.102;11.636;2022-07-12T10:07:18;1.17;;;1.05;;
21513;SDS011;10918;48.102;11.636;2022-07-12T10:09:46;0.88;;;0.80;;
21513;SDS011;10918;48.102;11.636;2022-07-12T10:12:16;2.80;;;1.52;;
21513;SDS011;10918;48.102;11.636;2022-07-12T10:14:43;2.30;;;1.05;;
21513;SDS011;10918;48.102;11.636;2022-07-12T10:17:10;1.63;;;1.10;;
21513;SDS011;10918;48.102;11.636;2022-07-12T10:19:37;0.68;;;0.68;;
21513;SDS011;10918;48.102;11.636;2022-07-12T10:22:04;0.70;;;0.70;;
21513;SDS011;10918;48.102;11.636;2022-07-12T10:27:00;1.23;;;0.90;;
21513;SDS011;10918;48.102;11.636;2022-07-12T10:29:45;1.60;;;1.10;;
21513;SDS011;10918;48.102;11.636;2022-07-12T10:32:24;1.42;;;0.90;;
21513;SDS011;10918;48.102;11.636;2022-07-12T10:34:57;1.17;;;1.10;;
21513;SDS011;10918;48.102;11.636;2022-07-12T10:37:24;0.82;;;0.75;;
21513;SDS011;10918;48.102;11.636;2022-07-12T10:42:34;1.77;;;1.02;;
21513;SDS011;10918;48.102;11.636;2022-07-12T10:45:35;4.93;;;2.10;;
21513;SDS011;10918;48.102;11.636;2022-07-12T10:47:53;0.80;;;0.80;;
21513;SDS011;10918;48.102;11.636;2022-07-12T10:50:19;1.27;;;1.13;;
21513;SDS011;10918;48.102;11.636;2022-07-12T10:52:45;0.85;;;0.85;;
21513;SDS011;10918;48.102;11.636;2022-07-12T10:57:41;1.90;;;0.90;;
21513;SDS011;10918;48.102;11.636;2022-07-12T11:00:08;2.20;;;1.30;;
21513;SDS011;10918;48.102;11.636;2022-07-12T11:02:34;1.00;;;0.90;;
21513;SDS011;10918;48.102;11.636;2022-07-12T11:05:00;0.77;;;0.77;;
21513;SDS011;10918;48.102;11.636;2022-07-12T11:07:27;1.35;;;0.90;;
21513;SDS011;10918;48.102;11.636;2022-07-12T11:09:53;1.13;;;1.02;;
21513;SDS011;10918;48.102;11.636;2022-07-12T11:12:20;1.77;;;0.90;;
21513;SDS011;10918;48.102;11.636;2022-07-12T11:14:46;1.55;;;0.90;;
21513;SDS011;10918;48.102;11.636;2022-07-12T11:17:12;1.95;;;0.98;;
21513;SDS011;10918;48.102;11.636;2022-07-12T11:19:39;2.28;;;0.93;;
21513;SDS011;10918;48.102;11.636;2022-07-12T11:22:05;1.27;;;1.13;;
21513;SDS011;10918;48.102;11.636;2022-07-12T11:24:31;0.80;;;0.80;;
21513;SDS011;10918;48.102;11.636;2022-07-12T11:26:57;1.00;;;0.90;;
21513;SDS011;10918;48.102;11.636;2022-07-12T11:29:27;0.90;;;0.90;;
21513;SDS011;10918;48.102;11.636;2022-07-12T11:32:00;1.02;;;0.63;;
21513;SDS011;10918;48.102;11.636;2022-07-12T11:34:28;2.05;;;0.90;;
21513;SDS011;10918;48.102;11.636;2022-07-12T11:36:55;0.73;;;0.73;;
21513;SDS011;10918;48.102;11.636;2022-07-12T11:39:40;1.95;;;0.80;;
21513;SDS011;10918;48.102;11.636;2022-07-12T11:42:06;2.25;;;1.15;;
21513;SDS011;10918;48.102;11.636;2022-07-12T11:44:45;1.42;;;0.90;;
21513;SDS011;10918;48.102;11.636;2022-07-12T11:47:11;0.95;;;0.77;;
21513;SDS011;10918;48.102;11.636;2022-07-12T11:49:47;1.50;;;0.85;;
21513;SDS011;10918;48.102;11.636;2022-07-12T11:52:14;1.20;;;0.90;;
21513;SDS011;10918;48.102;11.636;2022-07-12T11:54:40;1.00;;;0.85;;
21513;SDS011;10918;48.102;11.636;2022-07-12T11:57:07;0.90;;;0.63;;
21513;SDS011;10918;48.102;11.636;2022-07-12T11:59:33;2.58;;;2.38;;
21513;SDS011;10918;48.102;11.636;2022-07-12T12:02:03;1.05;;;0.70;;
21513;SDS011;10918;48.102;11.636;2022-07-12T12:04:29;1.35;;;1.25;;
21513;SDS011;10918;48.102;11.636;2022-07-12T12:06:55;1.00;;;0.90;;
21513;SDS011;10918;48.102;11.636;2022-07-12T12:09:21;0.60;;;0.60;;
21513;SDS011;10918;48.102;11.636;2022-07-12T12:11:47;0.50;;;0.50;;
21513;SDS011;10918;48.102;11.636;2022-07-12T12:14:13;0.60;;;0.47;;
21513;SDS011;10918;48.102;11.636;2022-07-12T12:16:39;0.93;;;0.57;;
21513;SDS011;10918;48.102;11.636;2022-07-12T12:19:10;1.02;;;0.65;;
21513;SDS011;10918;48.102;11.636;2022-07-12T12:21:36;0.65;;;0.52;;
21513;SDS011;10918;48.102;11.636;2022-07-12T12:24:09;0.70;;;0.70;;
21513;SDS011;10918;48.102;11.636;2022-07-12T12:26:35;1.23;;;0.50;;
21513;SDS011;10918;48.102;11.636;2022-07-12T12:29:01;0.77;;;0.77;;
21513;SDS011;10918;48.102;11.636;2022-07-12T12:31:28;0.88;;;0.70;;
21513;SDS011;10918;48.102;11.636;2022-07-12T12:33:54;0.63;;;0.60;;
21513;SDS011;10918;48.102;11.636;2022-07-12T12:36:24;0.60;;;0.60;;
21513;SDS011;10918;48.102;11.636;2022-07-12T12:38:57;0.43;;;0.43;;
21513;SDS011;10918;48.102;11.636;2022-07-12T12:41:24;0.70;;;0.70;;
21513;SDS011;10918;48.102;11.636;2022-07-12T12:43:57;0.63;;;0.63;;
21513;SDS011;10918;48.102;11.636;2022-07-12T12:46:46;0.73;;;0.73;;
21513;SDS011;10918;48.102;11.636;2022-07-12T12:49:12;0.68;;;0.65;;
21513;SDS011;10918;48.102;11.636;2022-07-12T12:51:51;1.15;;;0.60;;
21513;SDS011;10918;48.102;11.636;2022-07-12T12:54:30;1.23;;;0.60;;
21513;SDS011;10918;48.102;11.636;2022-07-12T12:56:56;0.47;;;0.47;;
21513;SDS011;10918;48.102;11.636;2022-07-12T12:59:22;0.68;;;0.45;;
21513;SDS011;10918;48.102;11.636;2022-07-12T13:01:47;2.15;;;0.55;;
21513;SDS011;10918;48.102;11.636;2022-07-12T13:04:16;0.70;;;0.63;;
21513;SDS011;10918;48.102;11.636;2022-07-12T13:06:42;0.75;;;0.75;;
21513;SDS011;10918;48.102;11.636;2022-07-12T13:09:08;2.70;;;0.57;;
21513;SDS011;10918;48.102;11.636;2022-07-12T13:11:34;0.70;;;0.70;;
21513;SDS011;10918;48.102;11.636;2022-07-12T13:14:00;0.93;;;0.60;;
21513;SDS011;10918;48.102;11.636;2022-07-12T13:16:26;0.57;;;0.57;;
21513;SDS011;10918;48.102;11.636;2022-07-12T13:18:52;0.85;;;0.77;;
21513;SDS011;10918;48.102;11.636;2022-07-12T13:21:18;1.15;;;0.63;;
21513;SDS011;10918;48.102;11.636;2022-07-12T13:23:44;0.73;;;0.70;;
21513;SDS011;10918;48.102;11.636;2022-07-12T13:26:10;1.33;;;0.60;;
21513;SDS011;10918;48.102;11.636;2022-07-12T13:28:36;0.52;;;0.52;;
21513;SDS011;10918;48.102;11.636;2022-07-12T13:31:02;0.60;;;0.60;;
21513;SDS011;10918;48.102;11.636;2022-07-12T13:33:28;0.50;;;0.50;;
21513;SDS011;10918;48.102;11.636;2022-07-12T13:35:54;1.63;;;1.00;;
21513;SDS011;10918;48.102;11.636;2022-07-12T13:38:21;1.00;;;0.70;;
21513;SDS011;10918;48.102;11.636;2022-07-12T13:40:46;0.93;;;0.80;;
21513;SDS011;10918;48.102;11.636;2022-07-12T13:43:12;0.65;;;0.65;;
21513;SDS011;10918;48.102;11.636;2022-07-12T13:45:38;2.33;;;1.35;;
21513;SDS011;10918;48.102;11.636;2022-07-12T13:48:09;1.30;;;0.70;;
21513;SDS011;10918;48.102;11.636;2022-07-12T13:50:35;1.20;;;0.45;;
21513;SDS011;10918;48.102;11.636;2022-07-12T13:53:01;0.73;;;0.63;;
21513;SDS011;10918;48.102;11.636;2022-07-12T13:55:27;1.52;;;0.77;;
21513;SDS011;10918;48.102;11.636;2022-07-12T13:57:55;0.93;;;0.93;;
21513;SDS011;10918;48.102;11.636;2022-07-12T14:00:21;1.98;;;0.70;;
21513;SDS011;10918;48.102;11.636;2022-07-12T14:02:48;0.95;;;0.63;;
21513;SDS011;10918;48.102;11.636;2022-07-12T14:05:15;2.35;;;0.60;;
21513;SDS011;10918;48.102;11.636;2022-07-12T14:07:41;0.50;;;0.50;;
21513;SDS011;10918;48.102;11.636;2022-07-12T14:10:08;1.17;;;0.70;;
21513;SDS011;10918;48.102;11.636;2022-07-12T14:12:35;0.50;;;0.50;;
21513;SDS011;10918;48.102;11.636;2022-07-12T14:15:01;0.95;;;0.57;;
21513;SDS011;10918;48.102;11.636;2022-07-12T14:17:46;0.55;;;0.50;;
21513;SDS011;10918;48.102;11.636;2022-07-12T14:20:14;0.40;;;0.40;;
21513;SDS011;10918;48.102;11.636;2022-07-12T14:22:40;1.20;;;0.77;;
21513;SDS011;10918;48.102;11.636;2022-07-12T14:25:07;1.02;;;0.90;;
21513;SDS011;10918;48.102;11.636;2022-07-12T14:27:33;0.73;;;0.73;;
21513;SDS011;10918;48.102;11.636;2022-07-12T14:30:00;0.77;;;0.60;;
21513;SDS011;10918;48.102;11.636;2022-07-12T14:32:26;0.90;;;0.80;;
21513;SDS011;10918;48.102;11.636;2022-07-12T14:34:52;1.25;;;0.70;;
21513;SDS011;10918;48.102;11.636;2022-07-12T14:37:19;2.35;;;0.55;;
21513;SDS011;10918;48.102;11.636;2022-07-12T14:39:45;0.88;;;0.68;;
21513;SDS011;10918;48.102;11.636;2022-07-12T14:42:13;1.48;;;0.47;;
21513;SDS011;10918;48.102;11.636;2022-07-12T14:44:39;0.50;;;0.50;;
21513;SDS011;10918;48.102;11.636;2022-07-12T14:47:05;1.83;;;0.77;;